Time;durP1;ratioP1;P1;durP2;ratioP2;P2;SDS_P1;SDS_P2;PMS_P1;PMS_P2;Temp;Humidity;BMP_temperature;BMP_pressure;BME280_temperature;BME280_humidity;BME280_pressure;Samples;Min_cycle;Max_cycle;Signal;HPM_P1;HPM_P2
2022/08/29 00:00:11;;;;;;;1.90;1.23;;;19.10;62.10;21.20;94062.00;;;;10428641;28;45221;-58
2022/08/29 00:05:36;;;;;;;1.70;1.15;;;19.10;62.20;21.20;94069.00;;;;10428404;28;45174;-58
2022/08/29 00:10:57;;;;;;;1.50;1.20;;;19.10;62.10;21.20;94054.00;;;;10427909;28;45220;-60
2022/08/29 00:16:18;;;;;;;2.13;1.23;;;19.10;62.20;21.20;94060.00;;;;10425966;28;45824;-60
2022/08/29 00:21:40;;;;;;;1.92;1.10;;;19.10;62.20;21.20;94065.00;;;;10427329;28;45688;-60
2022/08/29 00:27:01;;;;;;;1.40;1.20;;;19.10;62.20;21.20;94067.00;;;;10427531;28;45194;-59
2022/08/29 00:32:21;;;;;;;1.60;1.20;;;19.10;62.20;21.20;94073.00;;;;10449401;28;45207;-57
2022/08/29 00:37:44;;;;;;;1.50;1.10;;;19.10;62.10;21.20;94050.00;;;;10453850;28;45503;-59
2022/08/29 00:43:06;;;;;;;2.03;1.30;;;19.10;62.20;21.20;94067.00;;;;10462379;28;45262;-58
2022/08/29 00:48:27;;;;;;;1.20;0.98;;;19.10;62.20;21.20;94069.00;;;;10453739;28;45919;-59
2022/08/29 00:53:55;;;;;;;1.23;1.08;;;19.10;62.20;21.20;94070.00;;;;10454600;28;45246;-59
2022/08/29 00:59:21;;;;;;;1.48;1.20;;;19.10;62.20;21.20;94068.00;;;;10474726;28;45172;-60
2022/08/29 01:04:42;;;;;;;2.20;1.60;;;19.10;62.20;21.20;94079.00;;;;10446807;28;45192;-59
2022/08/29 01:10:05;;;;;;;1.75;1.30;;;19.10;62.10;21.20;94066.00;;;;10446256;28;45199;-60
2022/08/29 01:15:29;;;;;;;1.60;1.20;;;19.00;62.10;21.20;94070.00;;;;10441072;28;45247;-62
2022/08/29 01:21:03;;;;;;;1.67;1.38;;;19.10;62.20;21.20;94077.00;;;;10454866;28;45153;-59
2022/08/29 01:26:27;;;;;;;1.67;1.30;;;19.10;62.20;21.20;94067.00;;;;10439562;28;45118;-61
2022/08/29 01:31:50;;;;;;;2.08;1.60;;;19.10;62.20;21.10;94061.00;;;;10453914;28;45250;-61
2022/08/29 01:37:14;;;;;;;2.28;1.50;;;19.10;62.10;21.20;94064.00;;;;10453506;28;45192;-60
2022/08/29 01:42:36;;;;;;;1.73;1.40;;;19.10;62.10;21.10;94059.00;;;;10438388;28;45279;-61
2022/08/29 01:47:56;;;;;;;1.70;1.40;;;19.10;62.20;21.20;94065.00;;;;10431898;28;45263;-61
2022/08/29 01:53:17;;;;;;;2.00;1.40;;;19.00;62.10;21.10;94070.00;;;;10432699;28;45184;-60
2022/08/29 01:58:39;;;;;;;1.65;1.30;;;19.00;62.10;21.10;94070.00;;;;10463990;28;45217;-60
2022/08/29 02:03:59;;;;;;;1.55;1.20;;;19.00;62.10;21.10;94062.00;;;;10447884;28;45181;-60
2022/08/29 02:09:20;;;;;;;2.25;1.60;;;19.10;62.10;21.10;94056.00;;;;10446013;28;45363;-59
2022/08/29 02:14:43;;;;;;;1.60;1.23;;;19.00;62.10;21.10;94053.00;;;;10432220;28;45232;-61
2022/08/29 02:20:07;;;;;;;1.90;1.42;;;19.00;62.10;21.10;94061.00;;;;10447228;28;45703;-58
2022/08/29 02:25:45;;;;;;;1.80;1.40;;;19.00;62.10;21.10;94046.00;;;;10431775;28;45309;-60
2022/08/29 02:31:07;;;;;;;1.50;1.17;;;19.00;62.10;21.10;94066.00;;;;10462955;28;45370;-58
2022/08/29 02:36:28;;;;;;;2.42;1.40;;;19.00;62.00;21.10;94052.00;;;;10472427;28;45232;-59
2022/08/29 02:41:48;;;;;;;1.52;1.30;;;19.00;62.00;21.10;94053.00;;;;10447324;28;45703;-57
2022/08/29 02:47:10;;;;;;;2.83;1.42;;;19.00;62.00;21.10;94049.00;;;;10430051;28;45248;-59
2022/08/29 02:52:31;;;;;;;2.15;1.30;;;19.00;62.10;21.10;94046.00;;;;10431794;28;45262;-59
2022/08/29 02:57:52;;;;;;;1.50;1.30;;;19.00;62.00;21.10;94055.00;;;;10455092;28;45181;-60
2022/08/29 03:03:15;;;;;;;1.98;1.30;;;19.00;62.00;21.10;94054.00;;;;10444419;28;45279;-59
2022/08/29 03:08:36;;;;;;;1.75;1.30;;;19.00;62.00;21.10;94067.00;;;;10431002;28;45385;-59
2022/08/29 03:13:57;;;;;;;1.85;1.40;;;19.00;62.00;21.10;94047.00;;;;10429937;28;45212;-57
2022/08/29 03:19:18;;;;;;;1.90;1.48;;;19.00;61.90;21.10;94059.00;;;;10429847;28;45249;-59
2022/08/29 03:24:39;;;;;;;1.98;1.40;;;19.00;61.90;21.10;94064.00;;;;10429431;28;45273;-59
2022/08/29 03:30:00;;;;;;;2.10;1.40;;;19.00;61.90;21.10;94037.00;;;;10429894;28;45849;-59
2022/08/29 03:35:22;;;;;;;2.13;1.58;;;19.00;61.90;21.10;94052.00;;;;10429484;28;45139;-59
2022/08/29 03:40:43;;;;;;;1.95;1.42;;;19.00;61.80;21.10;94047.00;;;;10459566;28;45443;-59
2022/08/29 03:46:03;;;;;;;1.67;1.40;;;19.00;61.80;21.10;94041.00;;;;10469647;28;45121;-59
2022/08/29 03:51:25;;;;;;;2.00;1.60;;;19.00;61.90;21.10;94053.00;;;;10471106;28;45254;-59
2022/08/29 03:56:46;;;;;;;2.00;1.50;;;19.00;61.80;21.10;94030.00;;;;10466834;28;45302;-58
2022/08/29 04:02:07;;;;;;;2.45;1.50;;;19.00;61.80;21.10;94041.00;;;;10428484;28;45273;-59
2022/08/29 04:07:30;;;;;;;1.70;1.13;;;19.00;61.80;21.10;94032.00;;;;10427761;28;45889;-59
2022/08/29 04:12:51;;;;;;;2.10;1.50;;;19.00;61.80;21.10;94041.00;;;;10428232;28;45882;-59
2022/08/29 04:18:12;;;;;;;1.92;1.60;;;19.00;61.80;21.10;94047.00;;;;10458806;28;45119;-60
2022/08/29 04:23:37;;;;;;;1.88;1.40;;;19.00;61.80;21.10;94057.00;;;;10469640;28;45207;-59
2022/08/29 04:28:57;;;;;;;1.88;1.40;;;19.00;61.70;21.10;94057.00;;;;10469328;28;45186;-59
2022/08/29 04:34:19;;;;;;;1.85;1.48;;;19.00;61.70;21.10;94060.00;;;;10464760;28;45582;-59
2022/08/29 04:39:42;;;;;;;1.90;1.40;;;19.00;61.70;21.10;94059.00;;;;10427379;28;45166;-59
2022/08/29 04:45:03;;;;;;;2.40;1.65;;;19.00;61.70;21.10;94064.00;;;;10426818;28;45238;-59
2022/08/29 04:50:25;;;;;;;2.33;1.67;;;19.00;61.70;21.10;94066.00;;;;10456567;28;45201;-58
2022/08/29 04:55:56;;;;;;;1.77;1.30;;;19.00;61.70;21.10;94080.00;;;;10469651;28;45742;-59
2022/08/29 05:01:20;;;;;;;1.92;1.63;;;19.00;61.70;21.10;94089.00;;;;10455137;28;45803;-61
2022/08/29 05:06:41;;;;;;;2.00;1.60;;;19.00;61.80;21.10;94082.00;;;;10426794;28;45297;-58
2022/08/29 05:12:03;;;;;;;2.00;1.40;;;19.00;61.80;21.10;94089.00;;;;10426289;28;45296;-59
2022/08/29 05:17:24;;;;;;;2.50;1.85;;;19.00;61.70;21.10;94101.00;;;;10426626;28;45858;-60
2022/08/29 05:22:45;;;;;;;2.05;1.48;;;19.00;61.70;21.10;94101.00;;;;10463368;28;45858;-59
2022/08/29 05:28:10;;;;;;;1.80;1.38;;;19.00;61.70;21.10;94113.00;;;;10475578;28;45387;-60
2022/08/29 05:33:30;;;;;;;2.20;1.40;;;19.00;61.70;21.10;94108.00;;;;10468695;28;45542;-60
2022/08/29 05:38:51;;;;;;;2.75;1.48;;;18.90;61.60;21.10;94110.00;;;;10433442;28;45230;-59
2022/08/29 05:44:13;;;;;;;3.38;1.60;;;19.00;61.60;21.10;94111.00;;;;10432003;28;45175;-61
2022/08/29 05:49:36;;;;;;;1.48;1.30;;;19.00;61.60;21.10;94127.00;;;;10432713;28;45199;-60
2022/08/29 05:54:57;;;;;;;1.73;1.30;;;19.00;61.60;21.10;94119.00;;;;10447389;28;45192;-60
2022/08/29 06:00:20;;;;;;;2.22;1.70;;;18.90;61.50;21.10;94111.00;;;;10475776;28;45727;-60
2022/08/29 06:05:41;;;;;;;2.75;1.48;;;19.00;61.60;21.10;94136.00;;;;10449028;28;45079;-58
2022/08/29 06:11:02;;;;;;;1.95;1.27;;;19.00;61.60;21.10;94123.00;;;;10446004;28;45228;-58
2022/08/29 06:16:26;;;;;;;1.65;1.30;;;19.00;61.50;21.10;94141.00;;;;10443055;28;45367;-59
2022/08/29 06:21:47;;;;;;;2.60;1.60;;;19.00;61.50;21.10;94143.00;;;;10432326;28;45696;-61
2022/08/29 06:27:07;;;;;;;1.55;1.33;;;19.00;61.50;21.10;94148.00;;;;10431751;28;45296;-61
2022/08/29 06:32:30;;;;;;;2.53;1.42;;;19.00;61.50;21.10;94152.00;;;;10460503;28;45163;-59
2022/08/29 06:37:50;;;;;;;2.78;1.88;;;19.00;61.40;21.10;94143.00;;;;10466342;28;45789;-59
2022/08/29 06:43:11;;;;;;;1.63;1.30;;;19.00;61.40;21.10;94145.00;;;;10430860;28;45778;-59
2022/08/29 06:48:33;;;;;;;2.38;1.25;;;19.00;61.40;21.10;94143.00;;;;10445800;28;45561;-61
2022/08/29 06:53:53;;;;;;;2.42;1.50;;;19.00;61.40;21.10;94151.00;;;;10450470;28;45265;-60
2022/08/29 06:59:14;;;;;;;1.30;1.10;;;19.00;61.40;21.10;94148.00;;;;10447686;28;45154;-59
2022/08/29 07:04:36;;;;;;;2.00;1.25;;;19.00;61.40;21.10;94160.00;;;;10442514;28;45190;-59
2022/08/29 07:09:56;;;;;;;1.75;1.40;;;19.00;61.30;21.10;94157.00;;;;10452828;28;45507;-58
2022/08/29 07:15:17;;;;;;;1.42;1.20;;;19.00;61.30;21.10;94143.00;;;;10446933;28;45250;-60
2022/08/29 07:20:39;;;;;;;2.17;1.48;;;19.00;61.40;21.10;94145.00;;;;10430340;28;45895;-59
2022/08/29 07:26:08;;;;;;;2.45;1.65;;;19.00;61.40;21.10;94166.00;;;;10455971;28;45276;-60
2022/08/29 07:31:28;;;;;;;2.33;1.35;;;19.00;61.40;21.20;94166.00;;;;10429962;28;45103;-60
2022/08/29 07:36:50;;;;;;;3.63;1.70;;;19.00;61.30;21.20;94163.00;;;;10429839;28;45220;-62
2022/08/29 07:42:10;;;;;;;2.35;1.40;;;19.10;61.30;21.30;94155.00;;;;10428633;28;45187;-59
2022/08/29 07:47:31;;;;;;;3.10;1.60;;;19.10;61.60;21.30;94161.00;;;;10436170;28;45435;-60
2022/08/29 07:52:53;;;;;;;5.95;1.88;;;19.20;62.10;21.30;94155.00;;;;10439266;28;45119;-60
2022/08/29 07:58:14;;;;;;;3.58;1.80;;;19.20;62.30;21.30;94147.00;;;;10441087;28;45138;-60
2022/08/29 08:03:35;;;;;;;2.85;1.70;;;19.20;62.00;21.20;94167.00;;;;10431141;28;45178;-60
2022/08/29 08:08:57;;;;;;;2.58;1.55;;;19.10;62.30;21.20;94162.00;;;;10427981;28;45253;-59
2022/08/29 08:14:18;;;;;;;4.13;1.95;;;19.10;62.20;21.20;94161.00;;;;10429226;28;45842;-60
2022/08/29 08:19:38;;;;;;;2.92;1.77;;;19.10;62.20;21.20;94158.00;;;;10429377;28;45727;-60
2022/08/29 08:25:00;;;;;;;2.78;1.60;;;19.10;62.00;21.30;94173.00;;;;10442453;28;45132;-60
2022/08/29 08:30:21;;;;;;;4.65;1.92;;;19.10;62.00;21.20;94177.00;;;;10441379;28;45798;-59
2022/08/29 08:35:42;;;;;;;3.70;1.88;;;19.10;62.00;21.20;94169.00;;;;10443185;28;45169;-58
2022/08/29 08:41:12;;;;;;;4.53;1.80;;;19.10;62.20;21.20;94180.00;;;;10469496;28;45865;-59
2022/08/29 08:46:39;;;;;;;3.47;1.77;;;19.10;62.10;21.30;94182.00;;;;10430609;28;45214;-58
2022/08/29 08:52:05;;;;;;;2.20;1.52;;;19.20;61.90;21.30;94182.00;;;;10448305;28;45917;-59
2022/08/29 08:57:38;;;;;;;2.13;1.52;;;19.20;61.80;21.30;94185.00;;;;10455309;28;45182;-59
2022/08/29 09:03:09;;;;;;;3.55;1.85;;;19.20;61.80;21.30;94173.00;;;;10458604;28;45225;-59
2022/08/29 09:08:43;;;;;;;4.68;1.85;;;19.20;61.90;21.30;94184.00;;;;10433694;28;45699;-60
2022/08/29 09:14:19;;;;;;;3.28;1.83;;;19.20;61.90;21.30;94171.00;;;;10434514;28;45254;-59
2022/08/29 09:19:40;;;;;;;4.20;2.08;;;19.20;61.90;21.30;94180.00;;;;10464443;28;45165;-59
2022/08/29 09:25:03;;;;;;;3.47;2.10;;;19.20;62.10;21.40;94167.00;;;;10474528;28;45335;-58
2022/08/29 09:30:32;;;;;;;3.70;2.08;;;19.30;62.30;21.40;94182.00;;;;10464843;28;45104;-59
2022/08/29 09:35:54;;;;;;;2.67;1.90;;;19.20;62.20;21.40;94170.00;;;;10439596;28;45265;-60
2022/08/29 09:41:28;;;;;;;3.67;2.20;;;19.30;62.30;21.40;94177.00;;;;10440279;28;45393;-60
2022/08/29 09:47:09;;;;;;;3.42;1.90;;;19.30;62.50;21.40;94190.00;;;;10434482;28;45292;-60
2022/08/29 09:52:31;;;;;;;2.35;1.70;;;19.30;62.30;21.40;94192.00;;;;10445086;28;45322;-60
2022/08/29 09:57:57;;;;;;;3.38;2.00;;;19.30;62.70;21.40;94179.00;;;;10457339;28;45171;-58
2022/08/29 10:03:23;;;;;;;3.95;2.00;;;19.30;62.60;21.40;94173.00;;;;10453706;28;45229;-58
2022/08/29 10:08:59;;;;;;;3.53;1.90;;;19.30;62.60;21.40;94169.00;;;;10432331;28;45266;-57
2022/08/29 10:14:31;;;;;;;2.47;1.80;;;19.30;62.60;21.40;94176.00;;;;10431747;28;45140;-58
2022/08/29 10:19:53;;;;;;;2.75;1.90;;;19.30;62.40;21.40;94178.00;;;;10431648;28;45314;-59
2022/08/29 10:25:23;;;;;;;2.38;2.00;;;19.30;62.30;21.40;94171.00;;;;10451590;28;45122;-59
2022/08/29 10:30:52;;;;;;;3.40;2.10;;;19.30;62.40;21.50;94180.00;;;;10464010;28;45369;-61
2022/08/29 10:36:20;;;;;;;3.38;2.00;;;19.30;62.50;21.50;94165.00;;;;10451414;28;45294;-59
2022/08/29 10:41:54;;;;;;;3.90;2.20;;;19.40;62.50;21.50;94172.00;;;;10451842;28;45229;-59
2022/08/29 10:47:33;;;;;;;2.88;2.03;;;19.40;62.50;21.50;94166.00;;;;10448080;28;45288;-59
2022/08/29 10:53:04;;;;;;;3.03;1.90;;;19.40;62.70;21.50;94164.00;;;;10447630;28;45563;-59
2022/08/29 10:58:47;;;;;;;3.60;2.00;;;19.40;62.60;21.50;94170.00;;;;10460616;28;45148;-60
2022/08/29 11:04:17;;;;;;;4.78;2.20;;;19.40;62.50;21.50;94160.00;;;;10445102;28;45233;-60
2022/08/29 11:09:44;;;;;;;2.92;1.98;;;19.40;62.60;21.50;94155.00;;;;10443743;28;45921;-59
2022/08/29 11:15:15;;;;;;;3.05;1.65;;;19.40;62.50;21.50;94151.00;;;;10430107;28;45217;-58
2022/08/29 11:20:44;;;;;;;3.35;1.92;;;19.40;62.60;21.50;94160.00;;;;10430745;28;45486;-59
2022/08/29 11:26:15;;;;;;;2.35;1.70;;;19.40;62.60;21.50;94149.00;;;;10443698;28;45248;-60
2022/08/29 11:31:50;;;;;;;2.97;1.95;;;19.50;62.60;21.60;94144.00;;;;10444653;28;45273;-60
2022/08/29 11:37:47;;;;;;;4.10;2.25;;;19.50;62.40;21.60;94166.00;;;;10431851;28;45132;-59
2022/08/29 11:43:13;;;;;;;3.80;1.87;;;19.50;62.30;21.60;94160.00;;;;10444282;28;45814;-60
2022/08/29 11:48:38;;;;;;;3.47;1.80;;;19.50;62.30;21.60;94161.00;;;;10434170;28;45174;-60
2022/08/29 11:55:02;;;;;;;2.55;1.80;;;19.50;62.30;21.70;94163.00;;;;10449319;28;45174;-59
2022/08/29 12:00:38;;;;;;;4.55;2.47;;;19.60;62.40;21.60;94152.00;;;;10423754;28;45155;-60
2022/08/29 12:06:03;;;;;;;2.95;1.77;;;19.60;62.30;21.60;94130.00;;;;10439884;28;45189;-59
2022/08/29 12:12:15;;;;;;;2.80;1.80;;;19.50;62.30;21.70;94149.00;;;;10442593;28;45280;-59
2022/08/29 12:17:45;;;;;;;3.78;1.98;;;19.50;62.60;21.70;94153.00;;;;10447353;28;45213;-58
2022/08/29 12:23:07;;;;;;;3.20;1.77;;;19.60;62.30;21.60;94144.00;;;;10446805;28;45659;-59
2022/08/29 12:28:36;;;;;;;3.55;1.95;;;19.60;62.40;21.70;94143.00;;;;10450040;28;45437;-59
2022/08/29 12:34:15;;;;;;;3.13;1.90;;;19.60;62.40;21.70;94127.00;;;;10429550;28;45379;-59
2022/08/29 12:40:05;;;;;;;3.45;2.00;;;19.60;62.20;21.70;94137.00;;;;10428667;28;45162;-60
2022/08/29 12:45:30;;;;;;;3.40;2.00;;;19.60;62.10;21.70;94112.00;;;;10444711;28;45229;-61
2022/08/29 12:50:53;;;;;;;3.63;2.30;;;19.60;62.00;21.70;94119.00;;;;10451346;28;45256;-59
2022/08/29 12:56:21;;;;;;;3.47;1.70;;;19.60;61.80;21.70;94110.00;;;;10457177;28;45443;-59
2022/08/29 13:01:49;;;;;;;2.95;1.92;;;19.60;61.70;21.70;94119.00;;;;10445181;28;45358;-59
2022/08/29 13:07:17;;;;;;;2.53;1.70;;;19.60;61.80;21.70;94124.00;;;;10426758;28;45699;-58
2022/08/29 13:12:38;;;;;;;2.78;1.70;;;19.60;61.70;21.80;94112.00;;;;10427208;28;45251;-59
2022/08/29 13:17:59;;;;;;;2.72;1.83;;;19.70;61.70;21.80;94102.00;;;;10457064;28;45217;-59
2022/08/29 13:23:25;;;;;;;2.65;1.60;;;19.70;61.50;21.80;94107.00;;;;10446708;28;45198;-59
2022/08/29 13:28:49;;;;;;;3.03;1.90;;;19.70;61.50;21.70;94106.00;;;;10444094;28;45474;-60
2022/08/29 13:34:21;;;;;;;2.75;1.80;;;19.70;61.40;21.80;94099.00;;;;10427711;28;45287;-60
2022/08/29 13:39:46;;;;;;;4.13;1.40;;;19.70;61.00;21.80;94092.00;;;;10440680;28;45683;-61
2022/08/29 13:45:21;;;;;;;2.25;1.60;;;19.70;60.90;21.80;94103.00;;;;10445482;28;45188;-60
2022/08/29 13:50:42;;;;;;;2.10;1.50;;;19.80;61.00;21.90;94092.00;;;;10458784;28;45283;-60
2022/08/29 13:56:04;;;;;;;3.00;1.95;;;19.80;60.40;21.80;94093.00;;;;10448150;28;45257;-59
2022/08/29 14:01:25;;;;;;;4.00;1.90;;;19.80;60.50;21.80;94083.00;;;;10452198;28;45129;-59
2022/08/29 14:06:46;;;;;;;3.65;2.00;;;19.80;60.40;21.80;94078.00;;;;10448319;28;45234;-59
2022/08/29 14:12:09;;;;;;;1.83;1.60;;;19.80;60.20;21.80;94065.00;;;;10433590;28;45260;-59
2022/08/29 14:17:30;;;;;;;3.13;1.85;;;19.80;60.20;21.90;94077.00;;;;10431723;28;45166;-59
2022/08/29 14:22:50;;;;;;;2.08;1.55;;;19.80;60.00;21.90;94063.00;;;;10432088;28;45715;-60
2022/08/29 14:28:12;;;;;;;2.65;1.58;;;19.80;60.10;21.90;94071.00;;;;10445065;28;45680;-60
2022/08/29 14:33:33;;;;;;;3.03;1.40;;;19.80;59.80;21.90;94063.00;;;;10445001;28;45354;-59
2022/08/29 14:38:53;;;;;;;2.63;1.60;;;19.80;59.80;21.90;94062.00;;;;10461005;28;45264;-59
2022/08/29 14:44:15;;;;;;;4.53;1.65;;;19.80;59.70;21.90;94056.00;;;;10454752;28;45219;-61
2022/08/29 14:49:36;;;;;;;3.10;1.52;;;19.80;59.80;22.00;94063.00;;;;10431094;28;45770;-59
2022/08/29 14:54:56;;;;;;;1.83;1.42;;;19.90;59.70;22.00;94060.00;;;;10444869;28;45169;-60
2022/08/29 15:00:22;;;;;;;2.25;1.50;;;19.90;59.60;22.00;94061.00;;;;10473821;28;45472;-60
2022/08/29 15:05:43;;;;;;;2.00;1.50;;;19.90;59.50;22.00;94062.00;;;;10460385;28;45288;-58
2022/08/29 15:11:04;;;;;;;2.30;1.60;;;19.90;59.50;22.00;94060.00;;;;10443827;28;45781;-58
2022/08/29 15:16:25;;;;;;;1.85;1.40;;;19.90;59.40;22.00;94069.00;;;;10456064;28;45585;-60
2022/08/29 15:21:46;;;;;;;2.10;1.50;;;19.90;59.30;22.00;94065.00;;;;10468073;28;45182;-61
2022/08/29 15:27:07;;;;;;;2.45;1.63;;;19.90;59.30;22.00;94047.00;;;;10471040;28;45172;-58
2022/08/29 15:32:29;;;;;;;2.35;1.40;;;20.00;59.10;22.00;94053.00;;;;10470340;28;45707;-59
2022/08/29 15:37:50;;;;;;;2.33;1.50;;;20.00;59.10;22.00;94062.00;;;;10469875;28;45206;-61
2022/08/29 15:43:11;;;;;;;2.00;1.30;;;20.00;59.10;22.10;94046.00;;;;10471036;28;45320;-60
2022/08/29 15:48:33;;;;;;;2.63;1.65;;;20.00;59.10;22.10;94040.00;;;;10470409;28;45333;-60
2022/08/29 15:53:54;;;;;;;2.97;1.90;;;20.00;59.00;22.10;94020.00;;;;10470090;28;45225;-60
2022/08/29 15:59:15;;;;;;;2.85;1.77;;;20.00;59.60;22.10;94029.00;;;;10470017;28;45251;-58
2022/08/29 16:04:41;;;;;;;3.25;1.90;;;20.00;58.80;22.10;94024.00;;;;10466820;28;45161;-60
2022/08/29 16:10:04;;;;;;;8.40;2.10;;;20.00;58.80;22.10;94018.00;;;;10455370;28;45131;-59
2022/08/29 16:15:26;;;;;;;3.78;2.15;;;20.00;58.80;22.10;94014.00;;;;10443080;28;44958;-60
2022/08/29 16:20:48;;;;;;;6.88;2.17;;;20.10;58.60;22.10;94015.00;;;;10429097;28;45217;-60
2022/08/29 16:26:09;;;;;;;5.88;1.95;;;20.10;58.70;22.10;94004.00;;;;10459482;28;45289;-60
2022/08/29 16:31:29;;;;;;;3.25;1.83;;;20.00;58.60;22.10;94011.00;;;;10447273;28;45245;-59
2022/08/29 16:36:55;;;;;;;3.38;2.03;;;20.00;58.50;22.10;94020.00;;;;10429615;28;45278;-60
2022/08/29 16:42:16;;;;;;;2.58;1.83;;;20.10;58.50;22.10;94006.00;;;;10444245;28;45691;-59
2022/08/29 16:47:37;;;;;;;4.32;1.80;;;20.10;58.30;22.10;94025.00;;;;10442100;28;45202;-59
2022/08/29 16:53:00;;;;;;;3.50;1.63;;;20.00;58.30;22.10;94041.00;;;;10431025;28;45222;-60
2022/08/29 17:04:01;;;;;;;2.83;1.80;;;20.00;58.50;22.10;94028.00;;;;10428207;28;45206;-59
2022/08/29 17:20:05;;;;;;;2.75;1.60;;;19.90;58.70;22.00;94034.00;;;;10449416;28;45213;-59
2022/08/29 17:25:27;;;;;;;2.53;1.60;;;19.80;59.00;22.00;94022.00;;;;10437080;28;45753;-59
2022/08/29 17:30:49;;;;;;;2.53;1.60;;;19.80;59.00;21.90;94020.00;;;;10461021;28;45130;-59
2022/08/29 17:36:10;;;;;;;2.33;1.48;;;19.80;59.00;21.90;94041.00;;;;10473903;28;45249;-59
2022/08/29 17:41:36;;;;;;;2.58;1.70;;;19.80;59.10;21.90;94045.00;;;;10474972;28;45556;-59
2022/08/29 17:46:57;;;;;;;1.73;1.35;;;19.80;59.10;21.90;94038.00;;;;10456844;28;45890;-59
2022/08/29 17:52:18;;;;;;;1.75;1.20;;;19.80;59.10;21.90;94053.00;;;;10433088;28;45290;-59
2022/08/29 17:57:40;;;;;;;2.38;1.40;;;19.80;59.20;21.90;94042.00;;;;10456208;28;45208;-59
2022/08/29 18:03:00;;;;;;;2.85;1.63;;;19.80;59.20;21.90;94038.00;;;;10456415;28;45788;-59
2022/08/29 18:08:21;;;;;;;2.42;1.48;;;19.80;59.20;21.90;94053.00;;;;10432549;28;45446;-58
2022/08/29 18:13:44;;;;;;;2.08;1.40;;;19.80;59.20;21.90;94031.00;;;;10430514;28;45245;-59
2022/08/29 18:19:05;;;;;;;2.20;1.45;;;19.80;59.30;21.90;94055.00;;;;10431386;28;45867;-59
2022/08/29 18:24:26;;;;;;;1.98;1.38;;;19.80;59.30;21.90;94058.00;;;;10450248;28;45304;-59
2022/08/29 18:29:47;;;;;;;2.00;1.30;;;19.80;59.30;21.90;94064.00;;;;10436071;28;45441;-59
2022/08/29 18:35:10;;;;;;;3.28;1.70;;;19.80;59.40;21.80;94067.00;;;;10435549;28;45216;-59
2022/08/29 18:40:31;;;;;;;1.85;1.40;;;19.70;59.40;21.80;94065.00;;;;10429832;28;45332;-62
2022/08/29 18:45:54;;;;;;;1.83;1.50;;;19.70;59.40;21.90;94066.00;;;;10429577;28;45252;-58
2022/08/29 18:51:14;;;;;;;2.28;1.48;;;19.70;59.30;21.80;94063.00;;;;10449418;28;45257;-58
2022/08/29 18:56:35;;;;;;;1.92;1.45;;;19.70;59.30;21.80;94072.00;;;;10449858;28;45754;-59
2022/08/29 19:01:57;;;;;;;1.90;1.42;;;19.70;59.10;21.80;94078.00;;;;10440239;28;45261;-58
2022/08/29 19:07:18;;;;;;;2.72;1.95;;;19.70;59.20;21.70;94081.00;;;;10451464;28;45687;-58
2022/08/29 19:12:39;;;;;;;2.17;1.58;;;19.70;59.10;21.70;94083.00;;;;10443485;28;45502;-58
2022/08/29 19:18:01;;;;;;;2.30;1.60;;;19.70;59.00;21.80;94086.00;;;;10425078;28;46041;-61
2022/08/29 19:23:22;;;;;;;2.42;1.70;;;19.70;58.80;21.70;94095.00;;;;10449201;28;45681;-58
2022/08/29 19:28:43;;;;;;;2.08;1.52;;;19.70;58.70;21.70;94094.00;;;;10428503;28;45836;-58
2022/08/29 19:34:05;;;;;;;3.15;1.73;;;19.70;58.70;21.70;94102.00;;;;10444751;28;45315;-59
2022/08/29 19:39:25;;;;;;;1.75;1.48;;;19.50;58.70;21.70;94104.00;;;;10427104;28;45742;-59
2022/08/29 19:44:46;;;;;;;3.25;1.70;;;19.50;58.80;21.70;94111.00;;;;10428220;28;45175;-59
2022/08/29 19:50:13;;;;;;;3.13;1.80;;;19.50;58.70;21.60;94114.00;;;;10428044;28;46377;-58
2022/08/29 19:55:35;;;;;;;4.15;1.77;;;19.50;58.80;21.60;94108.00;;;;10452495;28;46071;-59
2022/08/29 20:00:55;;;;;;;2.40;1.70;;;19.50;58.80;21.60;94111.00;;;;10459059;28;45238;-59
2022/08/29 20:06:17;;;;;;;4.13;2.05;;;19.50;58.70;21.60;94101.00;;;;10470234;28;45115;-59
2022/08/29 20:11:38;;;;;;;2.40;1.83;;;19.50;58.70;21.60;94114.00;;;;10451725;28;45234;-59
2022/08/29 20:16:58;;;;;;;1.83;1.60;;;19.50;58.80;21.60;94102.00;;;;10442346;28;45777;-59
2022/08/29 20:22:20;;;;;;;2.72;2.03;;;19.40;58.70;21.60;94111.00;;;;10448517;28;45142;-59
2022/08/29 20:27:41;;;;;;;2.67;1.85;;;19.40;58.70;21.60;94119.00;;;;10436328;28;45753;-59
2022/08/29 20:33:03;;;;;;;2.22;1.65;;;19.40;58.80;21.50;94112.00;;;;10426265;28;45184;-59
2022/08/29 20:38:25;;;;;;;2.20;1.50;;;19.40;58.80;21.50;94131.00;;;;10429689;28;45455;-60
2022/08/29 20:43:46;;;;;;;2.03;1.70;;;19.40;59.00;21.50;94120.00;;;;10429160;28;45186;-60
2022/08/29 20:49:06;;;;;;;4.13;1.77;;;19.50;58.80;21.50;94119.00;;;;10432826;28;45162;-60
2022/08/29 20:54:29;;;;;;;2.17;1.77;;;19.50;58.90;21.50;94122.00;;;;10437009;28;45126;-59
2022/08/29 20:59:50;;;;;;;1.77;1.42;;;19.40;58.80;21.50;94127.00;;;;10463343;28;45163;-60
2022/08/29 21:10:54;;;;;;;3.15;1.88;;;19.50;58.80;21.50;94112.00;;;;10436582;28;45857;-60
2022/08/29 21:16:15;;;;;;;3.90;1.80;;;19.40;59.00;21.50;94126.00;;;;10465216;28;45308;-60
2022/08/29 21:21:36;;;;;;;2.65;1.67;;;19.40;59.00;21.50;94118.00;;;;10457755;28;45753;-60
2022/08/29 21:26:58;;;;;;;2.78;1.83;;;19.40;59.00;21.50;94124.00;;;;10464095;28;45202;-59
2022/08/29 21:32:21;;;;;;;2.85;1.75;;;19.40;59.00;21.50;94127.00;;;;10462165;28;45216;-60
2022/08/29 21:37:42;;;;;;;3.30;1.90;;;19.40;59.00;21.50;94118.00;;;;10440652;28;45695;-59
2022/08/29 21:43:04;;;;;;;3.00;1.88;;;19.40;59.10;21.50;94135.00;;;;10463299;28;45210;-59
2022/08/29 21:48:25;;;;;;;4.93;1.98;;;19.40;59.10;21.40;94129.00;;;;10436095;28;45786;-59
2022/08/29 21:53:46;;;;;;;3.65;2.00;;;19.40;59.20;21.40;94127.00;;;;10448330;28;45254;-60
2022/08/29 21:59:08;;;;;;;2.78;1.60;;;19.40;59.30;21.50;94137.00;;;;10459988;28;45288;-60
2022/08/29 22:04:31;;;;;;;3.00;1.73;;;19.40;59.30;21.40;94135.00;;;;10457661;28;45203;-59
2022/08/29 22:09:52;;;;;;;2.47;1.80;;;19.40;59.40;21.40;94140.00;;;;10434805;28;45758;-60
2022/08/29 22:20:53;;;;;;;2.78;1.90;;;19.40;59.30;21.40;94130.00;;;;10434183;28;45257;-60
2022/08/29 22:26:15;;;;;;;3.75;1.90;;;19.30;60.10;21.40;94120.00;;;;10459492;28;45311;-59
2022/08/29 22:31:37;;;;;;;2.78;1.80;;;19.30;59.40;21.40;94122.00;;;;10447624;28;45454;-59
2022/08/29 22:36:57;;;;;;;3.47;1.88;;;19.40;59.30;21.40;94126.00;;;;10435961;28;45226;-60
2022/08/29 22:42:18;;;;;;;2.92;1.70;;;19.30;59.30;21.40;94126.00;;;;10460161;28;45464;-59
2022/08/29 22:47:42;;;;;;;3.42;1.98;;;19.30;59.40;21.40;94133.00;;;;10433268;28;45171;-60
2022/08/29 22:53:04;;;;;;;3.28;1.92;;;19.30;59.40;21.40;94118.00;;;;10446797;28;45223;-60
2022/08/29 22:58:25;;;;;;;3.33;2.00;;;19.30;59.40;21.40;94116.00;;;;10462703;28;45250;-60
2022/08/29 23:03:46;;;;;;;5.85;1.83;;;19.30;59.50;21.40;94117.00;;;;10450881;28;45236;-60
2022/08/29 23:09:07;;;;;;;2.47;1.90;;;19.30;59.40;21.40;94132.00;;;;10432305;28;45700;-59
2022/08/29 23:14:28;;;;;;;2.63;1.83;;;19.30;59.40;21.40;94122.00;;;;10432252;28;45205;-60
2022/08/29 23:19:50;;;;;;;3.63;2.30;;;19.20;59.40;21.30;94131.00;;;;10432145;28;45239;-60
2022/08/29 23:25:12;;;;;;;2.40;1.83;;;19.30;59.50;21.30;94127.00;;;;10461371;28;45237;-59
2022/08/29 23:30:33;;;;;;;3.42;2.17;;;19.20;59.50;21.30;94141.00;;;;10458898;28;45139;-59
2022/08/29 23:35:55;;;;;;;2.42;1.80;;;19.20;59.50;21.30;94144.00;;;;10431912;28;46030;-60
2022/08/29 23:41:17;;;;;;;3.20;1.90;;;19.20;59.60;21.30;94137.00;;;;10444739;28;45209;-59
2022/08/29 23:46:37;;;;;;;3.40;1.75;;;19.20;59.50;21.30;94147.00;;;;10443885;28;45173;-60
2022/08/29 23:51:59;;;;;;;2.72;1.92;;;19.20;59.60;21.20;94153.00;;;;10431798;28;45213;-59
2022/08/29 23:57:20;;;;;;;3.53;1.63;;;19.10;59.60;21.30;94152.00;;;;10451379;28;45118;-60
